Time;durP1;ratioP1;P1;durP2;ratioP2;P2;SDS_P1;SDS_P2;PMS_P1;PMS_P2;Temp;Humidity;BMP_temperature;BMP_pressure;BME280_temperature;BME280_humidity;BME280_pressure;Samples;Min_cycle;Max_cycle;Signal;HPM_P1;HPM_P2
2022/01/19 00:00:07;;;;;;;46.70;35.00;;;;;;;-1.31;82.63;99539.31;109657;1273;23249;-64
2022/01/19 00:02:56;;;;;;;42.80;33.00;;;;;;;-0.93;89.21;99542.33;109557;1274;23654;-62
2022/01/19 00:05:25;;;;;;;42.90;30.70;;;;;;;-0.83;84.18;99547.93;109642;1274;22551;-61
2022/01/19 00:07:52;;;;;;;49.00;33.80;;;;;;;-0.88;83.35;99536.52;109661;1273;22474;-61
2022/01/19 00:10:27;;;;;;;56.10;37.70;;;;;;;-0.95;83.05;99533.55;109657;1273;22913;-61
2022/01/19 00:12:56;;;;;;;55.00;39.00;;;;;;;-1.08;83.08;99534.34;109655;1274;22507;-61
2022/01/19 00:15:26;;;;;;;59.30;42.60;;;;;;;-1.17;83.48;99531.42;109674;1273;22461;-61
2022/01/19 00:17:57;;;;;;;51.90;37.90;;;;;;;-1.19;83.40;99526.95;109696;1274;22517;-61
2022/01/19 00:20:30;;;;;;;58.20;38.60;;;;;;;-1.19;83.25;99524.80;109664;1273;22576;-63
2022/01/19 00:22:59;;;;;;;57.50;41.90;;;;;;;-1.17;83.24;99520.52;109668;1274;22258;-63
2022/01/19 00:25:27;;;;;;;60.90;45.50;;;;;;;-1.14;83.38;99518.04;109699;1273;22476;-63
2022/01/19 00:27:56;;;;;;;61.80;41.90;;;;;;;-1.11;83.43;99513.80;109607;1274;22429;-63
2022/01/19 00:30:26;;;;;;;59.10;40.80;;;;;;;-1.11;83.52;99520.59;109569;1273;22445;-63
2022/01/19 00:32:55;;;;;;;53.60;38.40;;;;;;;-1.16;83.55;99522.91;109641;1274;22599;-63
2022/01/19 00:35:23;;;;;;;52.00;38.00;;;;;;;-1.19;83.34;99516.70;109776;1272;23116;-63
2022/01/19 00:37:51;;;;;;;52.40;38.50;;;;;;;-1.22;83.56;99512.48;109652;1274;22464;-63
2022/01/19 00:40:20;;;;;;;55.30;40.80;;;;;;;-1.24;83.72;99508.29;109753;1272;22584;-63
2022/01/19 00:42:49;;;;;;;63.50;45.70;;;;;;;-1.25;83.60;99507.75;109595;1274;23403;-63
2022/01/19 00:45:18;;;;;;;57.60;39.70;;;;;;;-1.28;83.66;99512.51;109699;1272;22623;-62
2022/01/19 00:47:46;;;;;;;54.30;38.50;;;;;;;-1.28;83.62;99513.16;109618;1273;22612;-63
2022/01/19 00:50:19;;;;;;;71.20;48.70;;;;;;;-1.26;83.76;99512.70;109665;1272;138713;-62
2022/01/19 00:52:47;;;;;;;68.20;50.20;;;;;;;-1.26;83.85;99517.88;109606;1274;23221;-63
2022/01/19 00:55:15;;;;;;;83.40;48.40;;;;;;;-1.24;83.85;99523.13;109679;1273;23272;-62
2022/01/19 00:57:47;;;;;;;72.10;48.40;;;;;;;-1.26;84.61;99524.58;109695;1273;23309;-62
2022/01/19 01:00:27;;;;;;;80.20;51.70;;;;;;;-1.28;84.56;99514.50;109768;1273;22468;-62
2022/01/19 01:02:59;;;;;;;68.70;47.80;;;;;;;-1.28;84.49;99522.55;109650;1272;22370;-62
2022/01/19 01:05:36;;;;;;;63.40;46.40;;;;;;;-1.26;84.54;99513.22;109760;1272;22405;-62
2022/01/19 01:08:10;;;;;;;76.20;51.90;;;;;;;-1.24;84.39;99520.13;109774;1273;22423;-62
2022/01/19 01:10:43;;;;;;;71.70;50.30;;;;;;;-1.23;84.44;99520.67;109758;1273;23091;-62
2022/01/19 01:16:17;;;;;;;60.50;41.60;;;;;;;-1.26;84.32;99503.95;109507;1274;22510;-62
2022/01/19 01:18:47;;;;;;;55.80;41.10;;;;;;;-1.25;84.56;99503.52;109659;1274;22324;-63
2022/01/19 01:21:20;;;;;;;64.70;44.10;;;;;;;-1.24;84.60;99492.66;109763;1273;22478;-62
2022/01/19 01:23:49;;;;;;;69.70;46.90;;;;;;;-1.24;84.41;99482.20;109783;1272;22517;-63
2022/01/19 01:26:18;;;;;;;62.80;45.90;;;;;;;-1.24;84.35;99482.20;109508;1274;22497;-63
2022/01/19 01:28:47;;;;;;;57.40;41.20;;;;;;;-1.24;84.28;99479.23;109677;1273;22550;-63
2022/01/19 01:31:15;;;;;;;50.50;36.50;;;;;;;-1.21;84.36;99474.83;109669;1274;22418;-63
2022/01/19 01:33:43;;;;;;;49.80;37.80;;;;;;;-1.16;84.17;99467.73;109766;1272;22571;-62
2022/01/19 01:36:14;;;;;;;59.80;39.60;;;;;;;-1.11;84.33;99460.11;109689;1273;22538;-63
2022/01/19 01:38:42;;;;;;;61.70;42.00;;;;;;;-1.10;84.32;99450.77;109758;1272;22432;-63
2022/01/19 01:41:14;;;;;;;59.60;42.70;;;;;;;-1.10;84.33;99446.85;109630;1272;138109;-62
2022/01/19 01:43:54;;;;;;;54.30;37.70;;;;;;;-1.12;84.48;99444.08;109665;1273;22445;-63
2022/01/19 01:46:44;;;;;;;54.40;38.00;;;;;;;-1.13;84.61;99440.68;109695;1271;22544;-61
2022/01/19 01:49:27;;;;;;;62.60;41.80;;;;;;;-1.10;84.28;99422.39;109654;1273;22248;-62
2022/01/19 01:54:47;;;;;;;56.30;41.00;;;;;;;-1.11;84.83;99400.77;109674;1274;22384;-62
2022/01/19 01:57:17;;;;;;;53.60;36.00;;;;;;;-1.12;84.40;99394.08;109762;1272;22554;-62
2022/01/19 01:59:46;;;;;;;49.00;35.10;;;;;;;-1.12;84.61;99391.60;109662;1272;22449;-63
2022/01/19 02:02:20;;;;;;;49.50;35.20;;;;;;;-1.08;84.44;99392.54;109552;1273;22485;-63
2022/01/19 02:04:50;;;;;;;51.50;36.90;;;;;;;-1.03;84.59;99395.00;109759;1273;22441;-63
2022/01/19 02:10:38;;;;;;;59.00;39.90;;;;;;;-0.95;84.49;99394.92;109765;1273;22423;-62
2022/01/19 02:21:59;;;;;;;55.90;40.60;;;;;;;-0.94;84.31;99383.52;109764;1272;22478;-63
2022/01/19 02:24:31;;;;;;;61.90;43.20;;;;;;;-0.89;84.45;99389.79;109653;1272;22256;-64
2022/01/19 02:40:32;;;;;;;46.50;33.20;;;;;;;-0.97;84.49;99373.16;109670;1274;22355;-64
2022/01/19 02:51:11;;;;;;;47.70;33.70;;;;;;;-0.94;84.41;99361.13;109681;1273;22433;-64
2022/01/19 02:53:39;;;;;;;55.90;36.30;;;;;;;-0.94;84.40;99357.61;109752;1272;23416;-64
2022/01/19 02:56:14;;;;;;;51.70;35.90;;;;;;;-0.95;84.40;99364.64;109740;1273;23718;-64
2022/01/19 02:58:50;;;;;;;46.90;32.50;;;;;;;-0.97;84.60;99360.02;109669;1273;22543;-63
2022/01/19 03:09:29;;;;;;;49.10;33.20;;;;;;;-0.97;84.48;99338.09;109745;1272;22393;-64
2022/01/19 03:11:58;;;;;;;43.20;30.80;;;;;;;-1.00;84.68;99333.98;109676;1274;22591;-63
2022/01/19 03:14:26;;;;;;;46.60;31.60;;;;;;;-1.00;84.64;99335.48;109682;1274;23280;-63
2022/01/19 03:16:55;;;;;;;52.00;31.60;;;;;;;-0.98;84.57;99332.70;109686;1272;22435;-63
2022/01/19 03:19:25;;;;;;;43.20;31.60;;;;;;;-0.93;84.35;99330.48;109661;1273;22357;-63
2022/01/19 03:22:00;;;;;;;48.60;33.50;;;;;;;-0.93;84.29;99331.86;109661;1273;22474;-63
2022/01/19 03:24:52;;;;;;;49.40;33.00;;;;;;;-0.93;84.51;99325.84;109688;1274;22441;-64
2022/01/19 03:27:34;;;;;;;54.60;33.00;;;;;;;-0.94;84.53;99314.71;109687;1273;23117;-64
2022/01/19 03:30:04;;;;;;;46.70;31.00;;;;;;;-0.96;84.47;99315.54;109751;1273;22397;-64
2022/01/19 03:32:34;;;;;;;47.30;29.60;;;;;;;-0.96;84.48;99317.84;109643;1273;22471;-64
2022/01/19 03:35:13;;;;;;;47.40;32.70;;;;;;;-0.94;84.37;99310.92;109539;1274;139175;-64
2022/01/19 03:37:54;;;;;;;41.40;29.40;;;;;;;-0.92;84.42;99307.96;109674;1273;22337;-63
2022/01/19 03:40:23;;;;;;;52.00;37.90;;;;;;;-0.93;84.35;99306.00;109511;1274;22449;-64
2022/01/19 03:42:51;;;;;;;44.20;32.80;;;;;;;-0.95;84.60;99308.83;109676;1273;23190;-63
2022/01/19 03:45:27;;;;;;;51.90;33.40;;;;;;;-0.95;84.45;99299.08;109489;1274;22436;-64
2022/01/19 03:48:08;;;;;;;47.30;35.20;;;;;;;-0.94;84.44;99298.27;109590;1274;22517;-64
2022/01/19 03:50:38;;;;;;;52.50;37.10;;;;;;;-0.92;84.47;99302.68;109680;1274;22486;-64
2022/01/19 03:53:06;;;;;;;57.60;40.40;;;;;;;-0.93;84.61;99299.26;109674;1273;22429;-64
2022/01/19 03:55:34;;;;;;;51.80;35.80;;;;;;;-0.96;84.59;99299.23;109606;1274;22483;-64
2022/01/19 03:58:04;;;;;;;44.40;30.50;;;;;;;-0.98;84.60;99296.51;109612;1274;22543;-63
2022/01/19 04:00:35;;;;;;;45.40;31.60;;;;;;;-0.98;84.52;99292.81;109575;1274;22414;-64
2022/01/19 04:03:06;;;;;;;43.20;29.00;;;;;;;-0.96;84.36;99288.84;109592;1274;22525;-64
2022/01/19 04:05:53;;;;;;;43.80;31.10;;;;;;;-0.95;84.36;99286.82;109589;1272;138286;-64
2022/01/19 04:08:21;;;;;;;51.10;33.80;;;;;;;-0.94;84.57;99282.64;109587;1274;22825;-64
2022/01/19 04:10:50;;;;;;;60.40;45.20;;;;;;;-0.94;84.37;99279.39;109608;1273;23099;-64
2022/01/19 04:15:58;;;;;;;59.90;46.40;;;;;;;-0.90;84.36;99278.63;109616;1274;23324;-64
2022/01/19 04:18:26;;;;;;;59.40;45.40;;;;;;;-0.86;84.42;99275.33;109587;1274;23079;-64
2022/01/19 04:20:55;;;;;;;77.40;54.00;;;;;;;-0.82;84.57;99270.98;109675;1272;22369;-64
2022/01/19 04:23:27;;;;;;;60.30;46.60;;;;;;;-0.81;84.44;99269.98;109614;1274;23242;-64
2022/01/19 04:25:55;;;;;;;55.00;41.90;;;;;;;-0.84;84.24;99264.48;109599;1274;22434;-63
2022/01/19 04:28:23;;;;;;;47.80;35.10;;;;;;;-0.87;84.44;99261.11;109607;1273;22515;-64
2022/01/19 04:30:52;;;;;;;42.80;35.00;;;;;;;-0.87;84.18;99255.30;109618;1273;22431;-64
2022/01/19 04:33:25;;;;;;;44.50;33.00;;;;;;;-0.82;84.30;99255.42;109600;1273;22484;-64
2022/01/19 04:36:05;;;;;;;47.50;33.40;;;;;;;-0.78;84.43;99247.91;109475;1274;138098;-64
2022/01/19 05:04:09;;;;;;;40.50;31.40;;;;;;;-0.81;84.10;99212.06;109615;1274;22509;-64
2022/01/19 05:07:13;;;;;;;43.30;33.40;;;;;;;-0.78;84.18;99201.27;109672;1273;22662;-64
2022/01/19 05:15:36;;;;;;;42.20;31.60;;;;;;;-0.78;84.02;99195.30;109674;1272;22365;-63
2022/01/19 05:18:09;;;;;;;39.20;29.20;;;;;;;-0.81;84.05;99191.34;109514;1274;22395;-64
2022/01/19 05:20:37;;;;;;;35.30;26.70;;;;;;;-0.81;84.15;99189.71;109607;1274;22551;-63
2022/01/19 05:23:06;;;;;;;35.80;26.80;;;;;;;-0.80;83.93;99185.68;109611;1274;22419;-64
2022/01/19 05:25:34;;;;;;;40.70;29.50;;;;;;;-0.78;83.90;99185.48;109617;1274;22458;-64
2022/01/19 05:28:14;;;;;;;41.00;31.60;;;;;;;-0.77;83.83;99185.30;109599;1274;22605;-63
2022/01/19 05:30:43;;;;;;;37.60;30.60;;;;;;;-0.81;84.08;99181.68;109475;1274;22536;-63
2022/01/19 05:33:11;;;;;;;38.80;29.20;;;;;;;-0.83;84.08;99184.84;109696;1274;22754;-65
2022/01/19 05:35:39;;;;;;;35.60;25.90;;;;;;;-0.86;83.94;99176.92;109615;1274;23717;-62
2022/01/19 05:38:25;;;;;;;32.70;24.30;;;;;;;-0.87;84.09;99167.98;109661;1274;22519;-65
2022/01/19 05:41:17;;;;;;;31.50;24.60;;;;;;;-0.83;83.83;99164.90;109310;1273;22562;-63
2022/01/19 05:43:46;;;;;;;37.40;27.40;;;;;;;-0.82;83.78;99160.55;109686;1274;22566;-63
2022/01/19 05:46:14;;;;;;;41.10;33.80;;;;;;;-0.83;83.99;99152.20;109594;1274;22393;-63
2022/01/19 05:48:42;;;;;;;38.50;33.20;;;;;;;-0.84;84.09;99144.41;109531;1276;22435;-63
2022/01/19 05:51:11;;;;;;;41.30;32.00;;;;;;;-0.88;83.89;99140.00;109673;1274;22440;-65
2022/01/19 05:53:40;;;;;;;41.70;30.40;;;;;;;-0.91;83.75;99138.11;109683;1272;22559;-63
2022/01/19 05:56:10;;;;;;;36.20;29.80;;;;;;;-0.92;83.86;99135.05;109612;1274;22518;-63
2022/01/19 05:58:50;;;;;;;41.40;32.20;;;;;;;-0.90;83.70;99133.14;109601;1274;22572;-65
2022/01/19 06:01:19;;;;;;;46.10;37.40;;;;;;;-0.94;83.80;99132.52;109464;1274;137927;-64
2022/01/19 06:03:47;;;;;;;44.30;36.20;;;;;;;-0.98;83.68;99130.70;109665;1274;22364;-63
2022/01/19 06:06:53;;;;;;;42.20;36.90;;;;;;;-1.05;83.77;99125.15;109132;1274;22613;-64
2022/01/19 06:09:49;;;;;;;50.90;39.80;;;;;;;-1.12;83.69;99124.77;109611;1274;22410;-64
2022/01/19 06:12:19;;;;;;;42.70;34.40;;;;;;;-1.16;83.76;99123.78;109622;1274;22500;-64
2022/01/19 06:14:47;;;;;;;42.50;36.90;;;;;;;-1.16;83.62;99118.77;109596;1273;22350;-64
2022/01/19 06:17:15;;;;;;;41.50;34.50;;;;;;;-1.17;83.66;99125.20;109584;1272;22539;-65
2022/01/19 06:19:44;;;;;;;39.30;32.30;;;;;;;-1.20;83.78;99123.63;109594;1274;22399;-64
2022/01/19 06:22:16;;;;;;;41.70;34.20;;;;;;;-1.23;83.74;99119.82;109577;1274;22470;-64
2022/01/19 06:24:45;;;;;;;42.30;34.60;;;;;;;-1.25;83.87;99121.60;109596;1274;22537;-64
2022/01/19 06:27:13;;;;;;;43.80;33.70;;;;;;;-1.28;83.81;99120.30;109595;1274;22591;-63
2022/01/19 06:29:41;;;;;;;39.50;30.90;;;;;;;-1.30;83.75;99114.52;109609;1273;22446;-64
2022/01/19 06:32:10;;;;;;;44.40;33.50;;;;;;;-1.28;83.74;99119.70;109592;1274;22612;-63
2022/01/19 06:34:39;;;;;;;46.40;36.70;;;;;;;-1.27;83.53;99118.70;109491;1274;137514;-63
2022/01/19 06:37:19;;;;;;;65.20;50.50;;;;;;;-1.31;83.57;99119.92;109685;1274;22445;-64
2022/01/19 06:40:18;;;;;;;49.70;40.30;;;;;;;-1.37;83.70;99115.86;109501;1274;22576;-63
2022/01/19 06:42:46;;;;;;;38.50;29.20;;;;;;;-1.41;83.58;99120.30;109513;1274;22570;-63
2022/01/19 06:45:17;;;;;;;35.30;24.90;;;;;;;-1.41;83.65;99115.58;109589;1273;22544;-63
2022/01/19 06:47:46;;;;;;;32.60;24.10;;;;;;;-1.43;83.63;99114.17;109614;1274;22430;-63
2022/01/19 06:50:19;;;;;;;31.60;27.10;;;;;;;-1.42;83.70;99113.98;109605;1274;23266;-63
2022/01/19 06:52:48;;;;;;;37.10;28.50;;;;;;;-1.43;83.85;99114.47;109559;1274;22611;-63
2022/01/19 06:55:17;;;;;;;41.00;28.30;;;;;;;-1.45;83.65;99112.11;109676;1274;22377;-63
2022/01/19 06:57:45;;;;;;;43.40;28.10;;;;;;;-1.48;83.69;99108.88;109501;1274;23204;-64
2022/01/19 07:00:52;;;;;;;48.80;37.70;;;;;;;-1.50;83.61;99105.73;109005;1274;23201;-64
2022/01/19 07:03:43;;;;;;;39.00;30.70;;;;;;;-1.52;83.65;99110.03;109648;1274;23372;-64
2022/01/19 07:06:25;;;;;;;36.40;28.10;;;;;;;-1.55;83.66;99110.05;109669;1273;22548;-64
2022/01/19 07:09:15;;;;;;;35.80;28.00;;;;;;;-1.61;83.54;99109.88;109594;1273;23155;-64
2022/01/19 07:11:55;;;;;;;37.00;27.30;;;;;;;-1.66;83.68;99107.84;109585;1274;22559;-64
2022/01/19 07:14:23;;;;;;;31.40;24.70;;;;;;;-1.69;83.79;99105.41;109497;1274;22446;-64
2022/01/19 07:16:54;;;;;;;34.30;23.70;;;;;;;-1.69;83.57;99099.27;109593;1274;22428;-64
2022/01/19 07:19:22;;;;;;;36.10;24.40;;;;;;;-1.72;83.54;99100.52;109642;1274;22459;-64
2022/01/19 07:21:51;;;;;;;39.10;28.00;;;;;;;-1.74;83.65;99102.86;109587;1274;22483;-64
2022/01/19 07:24:20;;;;;;;35.50;27.10;;;;;;;-1.78;83.61;99102.65;109601;1274;23322;-64
2022/01/19 07:26:48;;;;;;;38.30;28.30;;;;;;;-1.81;83.80;99101.45;109586;1274;22454;-63
2022/01/19 07:29:22;;;;;;;36.70;27.60;;;;;;;-1.85;83.74;99105.92;109587;1274;22444;-62
2022/01/19 07:31:56;;;;;;;36.80;27.30;;;;;;;-1.86;83.82;99105.80;109573;1274;23187;-62
2022/01/19 07:34:25;;;;;;;40.30;28.40;;;;;;;-1.88;83.83;99109.84;109484;1274;23776;-62
2022/01/19 07:36:55;;;;;;;37.70;29.30;;;;;;;-1.91;83.84;99103.30;109557;1274;22513;-64
2022/01/19 07:39:24;;;;;;;38.70;31.30;;;;;;;-1.93;83.90;99105.02;109498;1274;22452;-64
2022/01/19 07:41:53;;;;;;;39.90;31.70;;;;;;;-1.95;83.84;99100.51;109582;1274;22589;-65
2022/01/19 07:44:56;;;;;;;42.40;31.10;;;;;;;-1.94;83.71;99095.71;108956;1273;22477;-65
2022/01/19 07:47:42;;;;;;;41.10;33.10;;;;;;;-1.92;84.00;99085.73;109610;1274;22728;-64
2022/01/19 07:50:23;;;;;;;42.40;32.50;;;;;;;-1.92;83.77;99081.80;109597;1274;23328;-65
2022/01/19 07:52:55;;;;;;;40.50;26.90;;;;;;;-1.94;83.92;99091.48;109593;1274;22589;-64
2022/01/19 07:55:36;;;;;;;34.60;24.10;;;;;;;-1.96;83.89;99074.08;109590;1274;22263;-64
2022/01/19 07:58:27;;;;;;;32.40;23.50;;;;;;;-1.94;83.89;99068.60;109634;1274;22587;-64
2022/01/19 08:01:16;;;;;;;29.50;23.10;;;;;;;-1.93;83.80;99067.04;109593;1273;23227;-64
2022/01/19 08:03:49;;;;;;;37.30;26.40;;;;;;;-1.93;83.92;99061.76;109511;1274;22503;-64
2022/01/19 08:06:21;;;;;;;40.20;27.20;;;;;;;-1.92;83.96;99058.98;109577;1274;23297;-64
2022/01/19 08:08:51;;;;;;;40.00;26.80;;;;;;;-1.92;83.75;99063.02;109576;1274;22339;-64
2022/01/19 08:11:19;;;;;;;72.20;33.40;;;;;;;-1.91;83.83;99067.86;109582;1274;22444;-64
2022/01/19 08:13:50;;;;;;;82.10;42.40;;;;;;;-1.88;83.66;99062.45;109588;1274;22550;-64
2022/01/19 08:16:18;;;;;;;63.30;35.50;;;;;;;-1.83;83.72;99058.91;109591;1273;22421;-64
2022/01/19 08:18:47;;;;;;;84.90;41.90;;;;;;;-1.81;83.65;99048.69;109592;1274;22430;-64
2022/01/19 08:21:16;;;;;;;35.90;24.80;;;;;;;-1.81;83.52;99049.50;109529;1276;22560;-64
2022/01/19 08:23:50;;;;;;;33.50;23.60;;;;;;;-1.76;83.67;99042.39;109593;1274;22371;-64
2022/01/19 08:26:18;;;;;;;24.70;20.90;;;;;;;-1.71;83.66;99036.12;109612;1274;22455;-64
2022/01/19 08:28:46;;;;;;;31.50;22.90;;;;;;;-1.68;83.42;99030.75;109577;1274;22461;-64
2022/01/19 08:31:14;;;;;;;31.50;23.40;;;;;;;-1.68;83.37;99025.49;109493;1274;22545;-64
2022/01/19 08:34:01;;;;;;;27.50;20.80;;;;;;;-1.65;83.48;99041.81;109679;1274;22427;-62
2022/01/19 08:36:48;;;;;;;26.80;21.30;;;;;;;-1.63;83.05;99030.33;109692;1274;22534;-64
2022/01/19 08:39:26;;;;;;;31.50;23.50;;;;;;;-1.61;83.08;99026.20;109572;1274;22593;-65
2022/01/19 08:41:56;;;;;;;32.50;25.20;;;;;;;-1.58;83.11;99018.95;109571;1274;22590;-64
2022/01/19 08:44:24;;;;;;;33.70;26.00;;;;;;;-1.55;83.07;99024.42;109570;1274;22472;-63
2022/01/19 08:46:59;;;;;;;;;;;;;;;-1.53;83.15;99016.12;109431;1274;22574;-63
2022/01/19 08:50:11;;;;;;;24.80;18.80;;;;;;;-1.53;83.12;99008.25;109604;1274;22427;-65
2022/01/19 08:52:52;;;;;;;27.10;20.30;;;;;;;-1.51;82.72;99000.81;109519;1274;22495;-64
2022/01/19 08:55:27;;;;;;;29.00;24.00;;;;;;;-1.50;82.76;98993.33;109553;1274;23804;-65
2022/01/19 08:57:56;;;;;;;25.70;21.50;;;;;;;-1.51;82.94;98983.29;109639;1274;22623;-65
2022/01/19 09:00:24;;;;;;;25.30;19.40;;;;;;;-1.53;82.81;98978.84;109499;1274;22533;-64
2022/01/19 09:02:52;;;;;;;25.60;20.70;;;;;;;-1.53;82.73;98979.05;109652;1274;22468;-64
2022/01/19 09:05:23;;;;;;;28.70;21.90;;;;;;;-1.52;82.74;98983.00;109655;1274;22540;-65
2022/01/19 09:07:53;;;;;;;26.50;21.00;;;;;;;-1.52;82.70;98982.23;109645;1274;23050;-64
2022/01/19 09:10:22;;;;;;;28.00;21.60;;;;;;;-1.52;82.81;98981.54;109642;1274;22527;-64
2022/01/19 09:12:50;;;;;;;32.20;25.80;;;;;;;-1.49;82.87;98979.97;109527;1274;23285;-65
2022/01/19 09:15:18;;;;;;;52.20;44.10;;;;;;;-1.42;83.06;98970.94;109660;1274;23572;-65
2022/01/19 09:17:46;;;;;;;49.40;41.00;;;;;;;-1.33;82.79;98968.63;109544;1274;22446;-65
2022/01/19 09:20:16;;;;;;;33.00;26.10;;;;;;;-1.28;82.95;98970.20;109635;1274;22462;-64
2022/01/19 09:22:46;;;;;;;26.90;22.20;;;;;;;-1.26;82.32;98968.89;109651;1274;22491;-64
2022/01/19 09:25:15;;;;;;;27.50;24.30;;;;;;;-1.25;82.72;98959.84;109657;1274;23081;-64
2022/01/19 09:27:43;;;;;;;29.00;24.10;;;;;;;-1.19;82.64;98953.32;109493;1273;22981;-64
2022/01/19 09:30:17;;;;;;;31.00;25.80;;;;;;;-1.11;82.46;98948.38;109651;1274;22619;-64
2022/01/19 09:32:54;;;;;;;30.30;23.30;;;;;;;-1.07;82.51;98948.48;109598;1273;22498;-65
2022/01/19 09:35:25;;;;;;;30.80;24.60;;;;;;;-1.04;82.47;98939.82;109648;1274;22553;-64
2022/01/19 09:37:54;;;;;;;26.80;23.90;;;;;;;-1.04;82.07;98940.35;109567;1274;22341;-64
2022/01/19 09:40:29;;;;;;;31.40;25.50;;;;;;;-1.07;81.93;98930.86;109657;1274;22372;-64
2022/01/19 09:43:07;;;;;;;28.00;24.60;;;;;;;-1.06;82.21;98925.65;109632;1274;22575;-64
2022/01/19 09:45:37;;;;;;;45.10;40.20;;;;;;;-1.02;82.61;98917.08;109593;1274;22556;-64
2022/01/19 09:48:07;;;;;;;31.40;25.50;;;;;;;-0.96;82.63;98914.23;109639;1274;22477;-64
2022/01/19 09:50:36;;;;;;;28.90;23.40;;;;;;;-0.94;82.20;98907.14;109653;1274;22494;-64
2022/01/19 09:53:06;;;;;;;30.70;23.90;;;;;;;-0.95;82.23;98906.03;109659;1274;23261;-63
2022/01/19 09:55:38;;;;;;;34.40;28.60;;;;;;;-0.89;82.29;98899.20;109553;1274;23049;-63
2022/01/19 09:58:08;;;;;;;32.20;27.70;;;;;;;-0.80;82.54;98900.58;109636;1274;22305;-64
2022/01/19 10:00:38;;;;;;;38.20;34.10;;;;;;;-0.72;82.62;98888.05;109661;1274;23088;-65
2022/01/19 10:03:15;;;;;;;27.30;23.80;;;;;;;-0.62;82.19;98895.05;109661;1274;23230;-65
2022/01/19 10:05:54;;;;;;;28.60;24.70;;;;;;;-0.57;81.69;98890.51;109630;1271;23232;-63
2022/01/19 10:08:32;;;;;;;32.10;26.30;;;;;;;-0.55;81.44;98885.95;109510;1274;22634;-63
2022/01/19 10:11:19;;;;;;;26.90;24.00;;;;;;;-0.53;81.84;98876.30;109657;1274;22561;-63
2022/01/19 10:17:01;;;;;;;35.00;25.80;;;;;;;-0.60;82.00;98875.39;109500;1274;124968;-64
2022/01/19 10:19:31;;;;;;;27.60;22.50;;;;;;;-0.53;81.88;98872.39;109659;1274;22506;-65
2022/01/19 10:22:18;;;;;;;33.80;27.00;;;;;;;-0.47;81.71;98873.21;109528;1274;22564;-62
2022/01/19 10:24:51;;;;;;;28.10;25.00;;;;;;;-0.42;81.74;98864.73;109650;1274;22543;-63
2022/01/19 10:27:38;;;;;;;30.90;24.30;;;;;;;-0.37;81.67;98856.94;109631;1274;22288;-64
2022/01/19 10:30:06;;;;;;;24.00;21.40;;;;;;;-0.33;81.75;98850.71;109667;1274;23198;-64
2022/01/19 10:32:40;;;;;;;53.40;44.60;;;;;;;-0.29;81.53;98845.90;109648;1274;22450;-63
2022/01/19 10:35:17;;;;;;;66.90;55.00;;;;;;;-0.28;80.65;98839.41;109498;1274;23704;-65
2022/01/19 10:38:04;;;;;;;30.50;25.20;;;;;;;-0.27;81.07;98834.05;109636;1274;23291;-65
2022/01/19 10:40:34;;;;;;;26.60;23.70;;;;;;;-0.25;81.42;98827.40;109635;1274;22503;-64
2022/01/19 10:43:27;;;;;;;26.90;21.20;;;;;;;-0.18;81.09;98818.59;109473;1274;22541;-67
2022/01/19 10:45:59;;;;;;;28.20;21.40;;;;;;;-0.11;81.04;98812.95;109643;1274;23183;-65
2022/01/19 10:48:37;;;;;;;24.80;21.40;;;;;;;-0.02;80.97;98811.48;109654;1274;22468;-65
2022/01/19 10:51:10;;;;;;;21.20;18.90;;;;;;;0.05;80.98;98809.48;109554;1274;22364;-66
2022/01/19 10:53:40;;;;;;;27.60;21.80;;;;;;;0.10;80.47;98801.48;109514;1274;23060;-65
2022/01/19 10:56:23;;;;;;;90.90;56.80;;;;;;;0.14;80.73;98797.56;109500;1274;22548;-64
2022/01/19 10:59:18;;;;;;;142.50;86.40;;;;;;;0.22;80.78;98796.64;109631;1274;23289;-68
2022/01/19 11:01:59;;;;;;;37.90;31.60;;;;;;;0.38;81.14;98790.90;109516;1274;138656;-64
2022/01/19 11:04:42;;;;;;;26.50;23.70;;;;;;;0.47;80.12;98788.33;109492;1274;22415;-65
2022/01/19 11:07:22;;;;;;;27.50;24.60;;;;;;;0.49;80.11;98782.37;109629;1274;22461;-62
2022/01/19 11:09:58;;;;;;;25.50;22.40;;;;;;;0.54;80.32;98781.41;109627;1274;23089;-62
2022/01/19 11:12:30;;;;;;;24.10;20.50;;;;;;;0.54;79.58;98778.88;109643;1274;22506;-63
2022/01/19 11:14:58;;;;;;;22.00;18.40;;;;;;;0.57;80.10;98779.35;109640;1274;22584;-63
2022/01/19 11:17:37;;;;;;;28.40;25.40;;;;;;;0.61;79.69;98772.71;109650;1274;22518;-63
2022/01/19 11:20:28;;;;;;;31.60;23.80;;;;;;;0.63;79.71;98777.28;109646;1274;22447;-62
2022/01/19 11:23:49;;;;;;;25.20;22.40;;;;;;;0.65;79.88;98761.88;109676;1274;22443;-62
2022/01/19 11:26:37;;;;;;;27.80;21.70;;;;;;;0.66;79.36;98756.86;109632;1274;22448;-62
2022/01/19 11:29:20;;;;;;;36.20;29.40;;;;;;;0.68;79.61;98746.96;109486;1274;22403;-63
2022/01/19 11:31:58;;;;;;;24.80;20.80;;;;;;;0.82;79.48;98739.58;109643;1274;22483;-63
2022/01/19 11:34:50;;;;;;;23.60;21.10;;;;;;;0.96;78.63;98733.55;109514;1274;22452;-62
2022/01/19 11:37:44;;;;;;;22.20;19.80;;;;;;;1.16;78.62;98725.42;109528;1274;23282;-63
2022/01/19 11:40:13;;;;;;;25.50;22.80;;;;;;;1.31;77.20;98724.46;109655;1274;22413;-63
2022/01/19 11:42:44;;;;;;;21.90;19.30;;;;;;;1.45;77.56;98716.95;109534;1274;137754;-64
2022/01/19 11:45:40;;;;;;;22.90;19.40;;;;;;;1.57;77.46;98706.17;109544;1274;22471;-63
2022/01/19 11:48:48;;;;;;;24.60;21.30;;;;;;;1.72;77.12;98700.81;109648;1274;22600;-63
2022/01/19 11:51:31;;;;;;;22.10;19.30;;;;;;;1.83;76.98;98691.79;109658;1274;23146;-63
2022/01/19 11:54:15;;;;;;;21.20;19.00;;;;;;;1.90;77.00;98677.96;109650;1274;22477;-64
2022/01/19 11:56:59;;;;;;;22.90;19.90;;;;;;;1.89;75.97;98674.62;109635;1274;22851;-64
2022/01/19 11:59:34;;;;;;;22.60;18.90;;;;;;;1.84;75.54;98675.24;109639;1274;22398;-63
2022/01/19 12:02:28;;;;;;;26.80;23.80;;;;;;;1.87;76.39;98668.47;109672;1274;22469;-63
2022/01/19 12:05:20;;;;;;;24.40;21.20;;;;;;;2.10;75.36;98658.45;109654;1274;22413;-63
2022/01/19 12:07:55;;;;;;;27.10;23.00;;;;;;;2.21;76.39;98647.58;109659;1274;23176;-63
2022/01/19 12:10:38;;;;;;;29.00;26.00;;;;;;;2.34;74.83;98649.23;109638;1274;22533;-63
2022/01/19 12:13:55;;;;;;;29.70;26.70;;;;;;;2.42;74.79;98646.90;109642;1273;22463;-63
2022/01/19 12:19:10;;;;;;;36.80;33.00;;;;;;;2.77;76.20;98632.52;109652;1274;22519;-63
2022/01/19 12:21:55;;;;;;;23.00;19.90;;;;;;;3.09;76.07;98624.21;109637;1274;22472;-63
2022/01/19 12:25:09;;;;;;;23.50;18.90;;;;;;;3.27;73.72;98612.36;109658;1274;22404;-63
2022/01/19 12:27:46;;;;;;;22.80;20.30;;;;;;;3.17;74.86;98602.58;109524;1274;22465;-63
2022/01/19 12:30:18;;;;;;;25.70;20.60;;;;;;;3.09;75.39;98588.68;109631;1272;22415;-63
2022/01/19 12:32:52;;;;;;;24.60;20.10;;;;;;;3.05;75.81;98585.15;109652;1274;22545;-64
2022/01/19 12:35:33;;;;;;;26.50;21.50;;;;;;;3.02;74.59;98581.90;109665;1274;22553;-63
2022/01/19 12:38:07;;;;;;;37.20;33.70;;;;;;;3.10;76.18;98573.21;109527;1274;23242;-63
2022/01/19 12:40:40;;;;;;;27.50;24.70;;;;;;;3.43;75.75;98565.23;109654;1274;23605;-63
2022/01/19 12:43:30;;;;;;;28.10;24.50;;;;;;;3.81;76.03;98559.08;109543;1274;137799;-65
2022/01/19 12:46:01;;;;;;;25.30;20.80;;;;;;;4.23;74.24;98551.70;109649;1274;22451;-64
2022/01/19 12:48:36;;;;;;;22.80;20.00;;;;;;;4.53;74.81;98547.83;109658;1274;22475;-64
2022/01/19 12:51:07;;;;;;;23.20;20.00;;;;;;;4.66;74.70;98544.91;109629;1274;22719;-64
2022/01/19 12:53:41;;;;;;;19.10;16.60;;;;;;;4.90;73.80;98541.95;109641;1274;22417;-64
2022/01/19 12:56:10;;;;;;;22.50;19.30;;;;;;;5.07;73.11;98539.03;109660;1274;22398;-64
2022/01/19 12:59:18;;;;;;;25.10;22.40;;;;;;;5.17;73.18;98531.64;109619;1272;22599;-64
2022/01/19 13:02:03;;;;;;;34.20;30.70;;;;;;;5.39;73.27;98530.36;109656;1274;22239;-64
2022/01/19 13:04:37;;;;;;;30.70;25.70;;;;;;;5.51;70.97;98518.67;109666;1274;22419;-64
2022/01/19 13:07:17;;;;;;;20.30;17.40;;;;;;;5.66;70.26;98512.96;109507;1274;22322;-64
2022/01/19 13:13:25;;;;;;;22.60;17.80;;;;;;;5.67;69.66;98504.73;109543;1274;137693;-64
2022/01/19 13:16:04;;;;;;;20.20;17.60;;;;;;;5.72;70.37;98503.02;109651;1274;23257;-64
2022/01/19 13:18:43;;;;;;;19.80;17.20;;;;;;;5.85;69.94;98502.23;109675;1274;22994;-64